sensor_id;sensor_type;location;lat;lon;timestamp;pressure;altitude;pressure_sealevel;temperature;humidity
71976;BME280;60680;52.182;5.398;2022-12-18T00:02:03;102878.00;;;-3.24;94.08
71976;BME280;60680;52.182;5.398;2022-12-18T00:04:30;102871.91;;;-3.28;94.26
71976;BME280;60680;52.182;5.398;2022-12-18T00:06:57;102862.41;;;-3.32;93.99
71976;BME280;60680;52.182;5.398;2022-12-18T00:09:23;102861.44;;;-3.35;94.41
71976;BME280;60680;52.182;5.398;2022-12-18T00:11:56;102854.56;;;-3.38;94.22
71976;BME280;60680;52.182;5.398;2022-12-18T00:14:23;102856.22;;;-3.38;94.27
71976;BME280;60680;52.182;5.398;2022-12-18T00:16:49;102852.03;;;-3.38;94.65
71976;BME280;60680;52.182;5.398;2022-12-18T00:19:15;102857.13;;;-3.38;93.78
71976;BME280;60680;52.182;5.398;2022-12-18T00:21:43;102856.97;;;-3.41;94.70
71976;BME280;60680;52.182;5.398;2022-12-18T00:24:10;102862.00;;;-3.42;94.35
71976;BME280;60680;52.182;5.398;2022-12-18T00:26:38;102872.31;;;-3.39;94.52
71976;BME280;60680;52.182;5.398;2022-12-18T00:29:09;102874.00;;;-3.40;94.83
71976;BME280;60680;52.182;5.398;2022-12-18T00:31:37;102870.44;;;-3.43;94.11
71976;BME280;60680;52.182;5.398;2022-12-18T00:34:03;102862.81;;;-3.43;93.94
71976;BME280;60680;52.182;5.398;2022-12-18T00:36:32;102855.94;;;-3.46;94.27
71976;BME280;60680;52.182;5.398;2022-12-18T00:39:03;102855.88;;;-3.47;94.33
71976;BME280;60680;52.182;5.398;2022-12-18T00:41:30;102852.28;;;-3.53;93.55
71976;BME280;60680;52.182;5.398;2022-12-18T00:44:16;102842.81;;;-3.55;94.78
71976;BME280;60680;52.182;5.398;2022-12-18T00:46:45;102856.22;;;-3.59;93.51
71976;BME280;60680;52.182;5.398;2022-12-18T00:49:11;102857.81;;;-3.63;94.48
71976;BME280;60680;52.182;5.398;2022-12-18T00:51:38;102846.69;;;-3.65;94.97
71976;BME280;60680;52.182;5.398;2022-12-18T00:54:05;102852.56;;;-3.66;94.88
71976;BME280;60680;52.182;5.398;2022-12-18T00:56:32;102852.72;;;-3.63;94.49
71976;BME280;60680;52.182;5.398;2022-12-18T00:58:58;102847.66;;;-3.61;94.25
71976;BME280;60680;52.182;5.398;2022-12-18T01:01:25;102847.66;;;-3.61;94.75
71976;BME280;60680;52.182;5.398;2022-12-18T01:03:51;102849.16;;;-3.66;94.80
71976;BME280;60680;52.182;5.398;2022-12-18T01:06:18;102850.03;;;-3.66;94.39
71976;BME280;60680;52.182;5.398;2022-12-18T01:08:44;102844.94;;;-3.66;94.64
71976;BME280;60680;52.182;5.398;2022-12-18T01:11:13;102848.16;;;-3.70;93.71
71976;BME280;60680;52.182;5.398;2022-12-18T01:13:40;102841.34;;;-3.71;94.34
71976;BME280;60680;52.182;5.398;2022-12-18T01:16:07;102843.97;;;-3.70;94.39
71976;BME280;60680;52.182;5.398;2022-12-18T01:18:35;102849.91;;;-3.69;95.18
71976;BME280;60680;52.182;5.398;2022-12-18T01:21:08;102850.78;;;-3.69;94.47
71976;BME280;60680;52.182;5.398;2022-12-18T01:23:35;102847.44;;;-3.67;94.25
71976;BME280;60680;52.182;5.398;2022-12-18T01:26:07;102856.69;;;-3.70;94.73
71976;BME280;60680;52.182;5.398;2022-12-18T01:28:34;102855.75;;;-3.72;94.89
71976;BME280;60680;52.182;5.398;2022-12-18T01:33:37;102854.75;;;-3.75;94.53
71976;BME280;60680;52.182;5.398;2022-12-18T01:36:04;102862.38;;;-3.75;94.20
71976;BME280;60680;52.182;5.398;2022-12-18T01:38:31;102872.56;;;-3.75;94.94
71976;BME280;60680;52.182;5.398;2022-12-18T01:41:01;102862.19;;;-3.80;94.09
71976;BME280;60680;52.182;5.398;2022-12-18T01:43:44;102870.63;;;-3.81;93.68
71976;BME280;60680;52.182;5.398;2022-12-18T01:46:11;102873.84;;;-3.85;95.16
71976;BME280;60680;52.182;5.398;2022-12-18T01:48:38;102877.06;;;-3.89;94.39
71976;BME280;60680;52.182;5.398;2022-12-18T01:51:07;102866.88;;;-3.89;94.40
71976;BME280;60680;52.182;5.398;2022-12-18T01:53:36;102871.09;;;-3.90;95.26
71976;BME280;60680;52.182;5.398;2022-12-18T01:56:04;102874.41;;;-3.92;94.33
71976;BME280;60680;52.182;5.398;2022-12-18T02:01:15;102870.72;;;-3.99;95.33
71976;BME280;60680;52.182;5.398;2022-12-18T02:03:43;102873.13;;;-4.02;95.24
71976;BME280;60680;52.182;5.398;2022-12-18T02:06:21;102878.09;;;-4.05;94.53
71976;BME280;60680;52.182;5.398;2022-12-18T02:16:44;102884.41;;;-4.16;95.15
71976;BME280;60680;52.182;5.398;2022-12-18T02:27:52;102890.06;;;-4.22;95.37
71976;BME280;60680;52.182;5.398;2022-12-18T02:30:21;102897.63;;;-4.23;95.26
71976;BME280;60680;52.182;5.398;2022-12-18T02:32:50;102894.22;;;-4.24;95.12
71976;BME280;60680;52.182;5.398;2022-12-18T02:35:25;102894.13;;;-4.25;94.92
71976;BME280;60680;52.182;5.398;2022-12-18T02:37:54;102896.63;;;-4.27;94.57
71976;BME280;60680;52.182;5.398;2022-12-18T02:40:22;102887.25;;;-4.28;95.44
71976;BME280;60680;52.182;5.398;2022-12-18T02:42:49;102876.16;;;-4.30;94.73
71976;BME280;60680;52.182;5.398;2022-12-18T02:45:16;102880.38;;;-4.31;94.85
71976;BME280;60680;52.182;5.398;2022-12-18T02:47:46;102881.16;;;-4.32;94.61
71976;BME280;60680;52.182;5.398;2022-12-18T02:50:27;102869.28;;;-4.33;94.96
71976;BME280;60680;52.182;5.398;2022-12-18T02:53:10;102870.06;;;-4.34;94.67
71976;BME280;60680;52.182;5.398;2022-12-18T02:58:50;102862.25;;;-4.38;95.04
71976;BME280;60680;52.182;5.398;2022-12-18T03:01:51;102859.50;;;-4.43;94.85
71976;BME280;60680;52.182;5.398;2022-12-18T03:07:09;102846.72;;;-4.44;94.96
71976;BME280;60680;52.182;5.398;2022-12-18T03:09:43;102843.31;;;-4.45;94.95
71976;BME280;60680;52.182;5.398;2022-12-18T03:12:20;102853.50;;;-4.45;94.60
71976;BME280;60680;52.182;5.398;2022-12-18T03:15:04;102848.28;;;-4.48;94.25
71976;BME280;60680;52.182;5.398;2022-12-18T03:17:36;102848.22;;;-4.49;94.23
71976;BME280;60680;52.182;5.398;2022-12-18T03:20:12;102843.91;;;-4.51;94.29
71976;BME280;60680;52.182;5.398;2022-12-18T03:22:42;102840.38;;;-4.54;94.21
71976;BME280;60680;52.182;5.398;2022-12-18T03:25:13;102836.84;;;-4.58;94.58
71976;BME280;60680;52.182;5.398;2022-12-18T03:27:43;102835.97;;;-4.58;94.72
71976;BME280;60680;52.182;5.398;2022-12-18T03:30:13;102829.09;;;-4.61;93.43
71976;BME280;60680;52.182;5.398;2022-12-18T03:32:58;102832.34;;;-4.63;93.88
71976;BME280;60680;52.182;5.398;2022-12-18T03:35:31;102830.63;;;-4.64;93.63
71976;BME280;60680;52.182;5.398;2022-12-18T03:38:00;102830.44;;;-4.69;93.62
71976;BME280;60680;52.182;5.398;2022-12-18T03:40:35;102818.59;;;-4.68;93.56
71976;BME280;60680;52.182;5.398;2022-12-18T03:43:33;102813.50;;;-4.68;94.38
71976;BME280;60680;52.182;5.398;2022-12-18T03:46:10;102807.50;;;-4.71;94.16
71976;BME280;60680;52.182;5.398;2022-12-18T03:48:42;102810.84;;;-4.72;93.14
71976;BME280;60680;52.182;5.398;2022-12-18T03:51:17;102809.91;;;-4.74;94.19
71976;BME280;60680;52.182;5.398;2022-12-18T03:56:16;102814.75;;;-4.78;93.55
71976;BME280;60680;52.182;5.398;2022-12-18T03:58:43;102814.63;;;-4.81;93.75
71976;BME280;60680;52.182;5.398;2022-12-18T04:01:13;102811.16;;;-4.83;93.32
71976;BME280;60680;52.182;5.398;2022-12-18T04:03:43;102799.19;;;-4.86;93.28
71976;BME280;60680;52.182;5.398;2022-12-18T04:06:13;102795.72;;;-4.88;93.39
71976;BME280;60680;52.182;5.398;2022-12-18T04:08:41;102795.56;;;-4.91;93.08
71976;BME280;60680;52.182;5.398;2022-12-18T04:11:08;102803.19;;;-4.91;92.68
71976;BME280;60680;52.182;5.398;2022-12-18T04:13:36;102799.69;;;-4.93;93.30
71976;BME280;60680;52.182;5.398;2022-12-18T04:16:04;102790.38;;;-4.94;93.76
71976;BME280;60680;52.182;5.398;2022-12-18T04:18:31;102786.81;;;-4.98;93.00
71976;BME280;60680;52.182;5.398;2022-12-18T04:20:58;102777.47;;;-4.99;93.52
71976;BME280;60680;52.182;5.398;2022-12-18T04:23:24;102784.28;;;-4.98;92.80
71976;BME280;60680;52.182;5.398;2022-12-18T04:25:51;102775.72;;;-5.00;93.08
71976;BME280;60680;52.182;5.398;2022-12-18T04:28:17;102769.69;;;-5.02;92.74
71976;BME280;60680;52.182;5.398;2022-12-18T04:30:44;102774.72;;;-5.03;92.96
71976;BME280;60680;52.182;5.398;2022-12-18T04:33:18;102778.91;;;-5.04;92.74
71976;BME280;60680;52.182;5.398;2022-12-18T04:35:44;102772.13;;;-5.05;92.78
71976;BME280;60680;52.182;5.398;2022-12-18T04:38:11;102780.50;;;-5.06;92.86
71976;BME280;60680;52.182;5.398;2022-12-18T04:40:38;102773.63;;;-5.08;93.46
71976;BME280;60680;52.182;5.398;2022-12-18T04:43:06;102779.53;;;-5.09;92.63
71976;BME280;60680;52.182;5.398;2022-12-18T04:45:33;102777.78;;;-5.10;93.14
71976;BME280;60680;52.182;5.398;2022-12-18T04:48:00;102787.94;;;-5.10;92.64
71976;BME280;60680;52.182;5.398;2022-12-18T04:50:27;102796.34;;;-5.12;92.30
71976;BME280;60680;52.182;5.398;2022-12-18T04:52:54;102797.94;;;-5.14;92.59
71976;BME280;60680;52.182;5.398;2022-12-18T04:55:21;102800.41;;;-5.15;92.77
71976;BME280;60680;52.182;5.398;2022-12-18T04:57:50;102806.22;;;-5.18;93.23
71976;BME280;60680;52.182;5.398;2022-12-18T05:00:17;102807.09;;;-5.17;93.37
71976;BME280;60680;52.182;5.398;2022-12-18T05:02:43;102810.44;;;-5.18;92.93
71976;BME280;60680;52.182;5.398;2022-12-18T05:05:10;102822.19;;;-5.20;92.29
71976;BME280;60680;52.182;5.398;2022-12-18T05:07:37;102821.25;;;-5.22;93.17
71976;BME280;60680;52.182;5.398;2022-12-18T05:10:03;102823.78;;;-5.22;91.95
71976;BME280;60680;52.182;5.398;2022-12-18T05:12:33;102828.84;;;-5.22;93.17
71976;BME280;60680;52.182;5.398;2022-12-18T05:14:59;102830.50;;;-5.23;92.67
71976;BME280;60680;52.182;5.398;2022-12-18T05:17:26;102836.47;;;-5.22;93.27
71976;BME280;60680;52.182;5.398;2022-12-18T05:19:52;102839.88;;;-5.22;92.27
71976;BME280;60680;52.182;5.398;2022-12-18T05:22:18;102842.31;;;-5.23;92.52
71976;BME280;60680;52.182;5.398;2022-12-18T05:24:45;102842.31;;;-5.23;92.60
71976;BME280;60680;52.182;5.398;2022-12-18T05:27:11;102847.41;;;-5.23;92.58
71976;BME280;60680;52.182;5.398;2022-12-18T05:29:38;102854.16;;;-5.24;92.17
71976;BME280;60680;52.182;5.398;2022-12-18T05:32:04;102855.81;;;-5.24;92.03
71976;BME280;60680;52.182;5.398;2022-12-18T05:34:30;102853.28;;;-5.24;92.33
71976;BME280;60680;52.182;5.398;2022-12-18T05:36:57;102854.97;;;-5.25;91.90
71976;BME280;60680;52.182;5.398;2022-12-18T05:39:23;102855.75;;;-5.26;92.58
71976;BME280;60680;52.182;5.398;2022-12-18T05:41:50;102837.03;;;-5.28;92.35
71976;BME280;60680;52.182;5.398;2022-12-18T05:44:16;102835.38;;;-5.27;91.84
71976;BME280;60680;52.182;5.398;2022-12-18T05:46:43;102830.25;;;-5.29;91.83
71976;BME280;60680;52.182;5.398;2022-12-18T05:49:09;102828.56;;;-5.28;92.71
71976;BME280;60680;52.182;5.398;2022-12-18T05:51:36;102828.47;;;-5.30;91.56
71976;BME280;60680;52.182;5.398;2022-12-18T05:54:02;102825.00;;;-5.32;92.30
71976;BME280;60680;52.182;5.398;2022-12-18T05:56:30;102826.59;;;-5.34;92.46
71976;BME280;60680;52.182;5.398;2022-12-18T05:58:57;102818.03;;;-5.36;92.48
71976;BME280;60680;52.182;5.398;2022-12-18T06:01:25;102821.41;;;-5.37;92.50
71976;BME280;60680;52.182;5.398;2022-12-18T06:03:52;102822.13;;;-5.40;92.03
71976;BME280;60680;52.182;5.398;2022-12-18T06:06:22;102819.50;;;-5.41;91.98
71976;BME280;60680;52.182;5.398;2022-12-18T06:08:50;102812.69;;;-5.42;92.33
71976;BME280;60680;52.182;5.398;2022-12-18T06:11:19;102815.94;;;-5.45;91.42
71976;BME280;60680;52.182;5.398;2022-12-18T06:13:46;102802.31;;;-5.47;92.11
71976;BME280;60680;52.182;5.398;2022-12-18T06:16:23;102803.91;;;-5.49;92.13
71976;BME280;60680;52.182;5.398;2022-12-18T06:18:49;102797.81;;;-5.53;92.32
71976;BME280;60680;52.182;5.398;2022-12-18T06:21:16;102796.91;;;-5.55;91.83
71976;BME280;60680;52.182;5.398;2022-12-18T06:23:42;102801.09;;;-5.55;91.79
71976;BME280;60680;52.182;5.398;2022-12-18T06:26:10;102796.00;;;-5.55;92.02
71976;BME280;60680;52.182;5.398;2022-12-18T06:28:37;102796.66;;;-5.59;92.45
71976;BME280;60680;52.182;5.398;2022-12-18T06:31:04;102791.53;;;-5.61;92.24
71976;BME280;60680;52.182;5.398;2022-12-18T06:33:32;102787.25;;;-5.62;92.25
71976;BME280;60680;52.182;5.398;2022-12-18T06:36:10;102776.16;;;-5.64;91.67
71976;BME280;60680;52.182;5.398;2022-12-18T06:38:39;102776.09;;;-5.65;92.36
71976;BME280;60680;52.182;5.398;2022-12-18T06:41:08;102770.16;;;-5.66;91.82
71976;BME280;60680;52.182;5.398;2022-12-18T06:43:34;102776.69;;;-5.71;91.81
71976;BME280;60680;52.182;5.398;2022-12-18T06:46:02;102769.84;;;-5.72;92.60
71976;BME280;60680;52.182;5.398;2022-12-18T06:48:29;102769.00;;;-5.72;92.33
71976;BME280;60680;52.182;5.398;2022-12-18T06:50:56;102761.31;;;-5.74;91.95
71976;BME280;60680;52.182;5.398;2022-12-18T06:53:23;102760.44;;;-5.75;91.85
71976;BME280;60680;52.182;5.398;2022-12-18T06:55:50;102757.81;;;-5.76;92.50
71976;BME280;60680;52.182;5.398;2022-12-18T06:58:16;102761.19;;;-5.77;91.59
71976;BME280;60680;52.182;5.398;2022-12-18T07:00:43;102745.09;;;-5.78;91.39
71976;BME280;60680;52.182;5.398;2022-12-18T07:03:10;102742.56;;;-5.78;92.48
71976;BME280;60680;52.182;5.398;2022-12-18T07:05:40;102744.22;;;-5.78;91.75
71976;BME280;60680;52.182;5.398;2022-12-18T07:08:07;102745.03;;;-5.79;92.24
71976;BME280;60680;52.182;5.398;2022-12-18T07:10:34;102744.16;;;-5.80;91.96
71976;BME280;60680;52.182;5.398;2022-12-18T07:13:00;102738.06;;;-5.83;92.08
71976;BME280;60680;52.182;5.398;2022-12-18T07:15:26;102736.34;;;-5.84;92.16
71976;BME280;60680;52.182;5.398;2022-12-18T07:17:53;102733.84;;;-5.83;91.65
71976;BME280;60680;52.182;5.398;2022-12-18T07:20:19;102741.47;;;-5.83;92.19
71976;BME280;60680;52.182;5.398;2022-12-18T07:22:46;102728.78;;;-5.83;92.45
71976;BME280;60680;52.182;5.398;2022-12-18T07:25:18;102728.78;;;-5.83;91.53
71976;BME280;60680;52.182;5.398;2022-12-18T07:27:44;102738.94;;;-5.83;91.66
71976;BME280;60680;52.182;5.398;2022-12-18T07:30:11;102728.75;;;-5.84;92.46
71976;BME280;60680;52.182;5.398;2022-12-18T07:32:37;102727.13;;;-5.82;92.33
71976;BME280;60680;52.182;5.398;2022-12-18T07:35:04;102716.97;;;-5.82;91.76
71976;BME280;60680;52.182;5.398;2022-12-18T07:37:30;102712.63;;;-5.85;91.91
71976;BME280;60680;52.182;5.398;2022-12-18T07:39:57;102705.84;;;-5.86;91.86
71976;BME280;60680;52.182;5.398;2022-12-18T07:42:23;102715.16;;;-5.85;92.13
71976;BME280;60680;52.182;5.398;2022-12-18T07:44:59;102711.78;;;-5.85;91.49
71976;BME280;60680;52.182;5.398;2022-12-18T07:47:27;102706.69;;;-5.85;92.37
71976;BME280;60680;52.182;5.398;2022-12-18T07:49:55;102692.34;;;-5.85;92.37
71976;BME280;60680;52.182;5.398;2022-12-18T07:52:22;102693.28;;;-5.83;92.28
71976;BME280;60680;52.182;5.398;2022-12-18T07:54:51;102688.22;;;-5.83;91.59
71976;BME280;60680;52.182;5.398;2022-12-18T07:57:18;102685.78;;;-5.81;91.90
71976;BME280;60680;52.182;5.398;2022-12-18T08:00:05;102685.78;;;-5.81;91.99
71976;BME280;60680;52.182;5.398;2022-12-18T08:02:31;102686.72;;;-5.79;91.96
71976;BME280;60680;52.182;5.398;2022-12-18T08:04:58;102678.38;;;-5.77;91.72
71976;BME280;60680;52.182;5.398;2022-12-18T08:07:25;102681.78;;;-5.76;91.78
71976;BME280;60680;52.182;5.398;2022-12-18T08:09:51;102666.63;;;-5.75;91.77
71976;BME280;60680;52.182;5.398;2022-12-18T08:12:17;102672.72;;;-5.71;92.36
71976;BME280;60680;52.182;5.398;2022-12-18T08:14:44;102662.78;;;-5.66;91.93
71976;BME280;60680;52.182;5.398;2022-12-18T08:17:10;102663.81;;;-5.63;92.42
71976;BME280;60680;52.182;5.398;2022-12-18T08:19:37;102664.00;;;-5.58;92.41
71976;BME280;60680;52.182;5.398;2022-12-18T08:22:03;102670.16;;;-5.53;92.54
71976;BME280;60680;52.182;5.398;2022-12-18T08:24:30;102682.16;;;-5.49;91.95
71976;BME280;60680;52.182;5.398;2022-12-18T08:26:56;102689.97;;;-5.44;92.50
71976;BME280;60680;52.182;5.398;2022-12-18T08:29:43;102696.00;;;-5.42;92.09
71976;BME280;60680;52.182;5.398;2022-12-18T08:32:09;102696.16;;;-5.39;91.50
71976;BME280;60680;52.182;5.398;2022-12-18T08:34:36;102701.28;;;-5.38;92.01
71976;BME280;60680;52.182;5.398;2022-12-18T08:37:03;102698.88;;;-5.35;92.49
71976;BME280;60680;52.182;5.398;2022-12-18T08:39:29;102693.00;;;-5.34;92.04
71976;BME280;60680;52.182;5.398;2022-12-18T08:41:56;102704.09;;;-5.32;91.61
71976;BME280;60680;52.182;5.398;2022-12-18T08:44:41;102694.88;;;-5.29;92.00
71976;BME280;60680;52.182;5.398;2022-12-18T08:47:08;102684.03;;;-5.27;92.52
71976;BME280;60680;52.182;5.398;2022-12-18T08:49:35;102697.66;;;-5.25;92.55
71976;BME280;60680;52.182;5.398;2022-12-18T08:52:01;102692.69;;;-5.22;92.35
71976;BME280;60680;52.182;5.398;2022-12-18T08:54:29;102692.03;;;-5.18;91.60
71976;BME280;60680;52.182;5.398;2022-12-18T08:56:55;102691.38;;;-5.14;92.30
71976;BME280;60680;52.182;5.398;2022-12-18T08:59:22;102688.28;;;-5.06;92.62
71976;BME280;60680;52.182;5.398;2022-12-18T09:01:49;102693.63;;;-5.00;91.93
71976;BME280;60680;52.182;5.398;2022-12-18T09:04:16;102700.66;;;-4.95;91.38
71976;BME280;60680;52.182;5.398;2022-12-18T09:06:43;102700.03;;;-4.89;91.86
71976;BME280;60680;52.182;5.398;2022-12-18T09:09:10;102697.75;;;-4.83;92.11
71976;BME280;60680;52.182;5.398;2022-12-18T09:11:37;102684.47;;;-4.77;91.57
71976;BME280;60680;52.182;5.398;2022-12-18T09:14:03;102684.66;;;-4.73;91.62
71976;BME280;60680;52.182;5.398;2022-12-18T09:16:30;102678.97;;;-4.67;91.60
71976;BME280;60680;52.182;5.398;2022-12-18T09:18:59;102672.41;;;-4.62;92.15
71976;BME280;60680;52.182;5.398;2022-12-18T09:21:28;102670.03;;;-4.57;91.25
71976;BME280;60680;52.182;5.398;2022-12-18T09:23:55;102680.47;;;-4.51;92.34
71976;BME280;60680;52.182;5.398;2022-12-18T09:26:23;102680.59;;;-4.48;92.33
71976;BME280;60680;52.182;5.398;2022-12-18T09:28:50;102682.50;;;-4.42;91.63
71976;BME280;60680;52.182;5.398;2022-12-18T09:31:20;102685.28;;;-4.38;92.04
71976;BME280;60680;52.182;5.398;2022-12-18T09:33:47;102684.56;;;-4.34;90.85
71976;BME280;60680;52.182;5.398;2022-12-18T09:36:15;102666.84;;;-4.32;91.70
71976;BME280;60680;52.182;5.398;2022-12-18T09:38:43;102654.31;;;-4.27;91.72
71976;BME280;60680;52.182;5.398;2022-12-18T09:41:42;102657.94;;;-4.22;90.99
71976;BME280;60680;52.182;5.398;2022-12-18T09:49:23;102656.75;;;-4.10;90.54
71976;BME280;60680;52.182;5.398;2022-12-18T09:51:58;102655.16;;;-4.06;91.76
71976;BME280;60680;52.182;5.398;2022-12-18T09:54:32;102648.59;;;-4.01;91.34
71976;BME280;60680;52.182;5.398;2022-12-18T09:56:59;102635.19;;;-3.97;91.80
71976;BME280;60680;52.182;5.398;2022-12-18T09:59:36;102631.22;;;-3.90;91.32
71976;BME280;60680;52.182;5.398;2022-12-18T10:02:30;102637.38;;;-3.83;91.76
71976;BME280;60680;52.182;5.398;2022-12-18T10:05:05;102635.00;;;-3.79;91.62
71976;BME280;60680;52.182;5.398;2022-12-18T10:10:36;102632.94;;;-3.66;90.39
71976;BME280;60680;52.182;5.398;2022-12-18T10:16:11;102633.41;;;-3.54;91.01
71976;BME280;60680;52.182;5.398;2022-12-18T10:18:52;102625.94;;;-3.50;90.60
71976;BME280;60680;52.182;5.398;2022-12-18T10:21:30;102626.16;;;-3.43;91.12
71976;BME280;60680;52.182;5.398;2022-12-18T10:26:43;102615.38;;;-3.36;89.92
71976;BME280;60680;52.182;5.398;2022-12-18T10:29:15;102615.53;;;-3.32;89.49
71976;BME280;60680;52.182;5.398;2022-12-18T10:31:42;102619.88;;;-3.29;89.36
71976;BME280;60680;52.182;5.398;2022-12-18T10:34:12;102610.66;;;-3.25;89.75
71976;BME280;60680;52.182;5.398;2022-12-18T10:36:42;102603.94;;;-3.23;89.56
71976;BME280;60680;52.182;5.398;2022-12-18T10:39:23;102606.69;;;-3.17;90.35
71976;BME280;60680;52.182;5.398;2022-12-18T10:41:50;102616.94;;;-3.16;90.23
71976;BME280;60680;52.182;5.398;2022-12-18T10:44:19;102613.63;;;-3.13;89.17
71976;BME280;60680;52.182;5.398;2022-12-18T10:46:49;102607.84;;;-3.09;89.69
71976;BME280;60680;52.182;5.398;2022-12-18T10:49:23;102596.09;;;-3.05;90.10
71976;BME280;60680;52.182;5.398;2022-12-18T10:51:51;102589.38;;;-3.02;89.87
71976;BME280;60680;52.182;5.398;2022-12-18T10:54:30;102592.06;;;-2.99;89.82
71976;BME280;60680;52.182;5.398;2022-12-18T10:57:20;102591.34;;;-2.95;89.10
71976;BME280;60680;52.182;5.398;2022-12-18T10:59:57;102582.09;;;-2.91;89.57
71976;BME280;60680;52.182;5.398;2022-12-18T11:02:34;102581.41;;;-2.87;88.92
71976;BME280;60680;52.182;5.398;2022-12-18T11:05:02;102579.78;;;-2.85;88.69
71976;BME280;60680;52.182;5.398;2022-12-18T11:07:48;102567.22;;;-2.79;89.10
71976;BME280;60680;52.182;5.398;2022-12-18T11:10:18;102563.06;;;-2.77;89.00
71976;BME280;60680;52.182;5.398;2022-12-18T11:12:45;102556.38;;;-2.73;88.23
71976;BME280;60680;52.182;5.398;2022-12-18T11:15:23;102547.19;;;-2.68;87.65
71976;BME280;60680;52.182;5.398;2022-12-18T11:17:52;102549.00;;;-2.65;87.51
71976;BME280;60680;52.182;5.398;2022-12-18T11:20:32;102544.03;;;-2.61;88.46
71976;BME280;60680;52.182;5.398;2022-12-18T11:23:05;102545.88;;;-2.57;87.50
71976;BME280;60680;52.182;5.398;2022-12-18T11:25:36;102535.81;;;-2.52;87.35
71976;BME280;60680;52.182;5.398;2022-12-18T11:28:05;102527.41;;;-2.50;87.88
71976;BME280;60680;52.182;5.398;2022-12-18T11:30:36;102530.06;;;-2.45;87.89
71976;BME280;60680;52.182;5.398;2022-12-18T11:33:13;102527.72;;;-2.39;86.61
71976;BME280;60680;52.182;5.398;2022-12-18T11:38:31;102544.06;;;-2.32;85.93
71976;BME280;60680;52.182;5.398;2022-12-18T11:43:48;102536.72;;;-2.23;86.69
71976;BME280;60680;52.182;5.398;2022-12-18T11:46:26;102528.28;;;-2.20;86.32
71976;BME280;60680;52.182;5.398;2022-12-18T11:49:03;102532.66;;;-2.16;86.29
71976;BME280;60680;52.182;5.398;2022-12-18T11:51:37;102525.94;;;-2.13;85.79
71976;BME280;60680;52.182;5.398;2022-12-18T11:54:14;102509.88;;;-2.10;85.26
71976;BME280;60680;52.182;5.398;2022-12-18T11:56:58;102513.34;;;-2.08;85.20
71976;BME280;60680;52.182;5.398;2022-12-18T11:59:43;102508.25;;;-2.08;85.42
71976;BME280;60680;52.182;5.398;2022-12-18T12:08:09;102494.72;;;-2.04;84.33
71976;BME280;60680;52.182;5.398;2022-12-18T12:10:51;102483.78;;;-2.01;84.56
71976;BME280;60680;52.182;5.398;2022-12-18T12:13:35;102471.03;;;-2.00;84.45
71976;BME280;60680;52.182;5.398;2022-12-18T12:16:18;102467.72;;;-1.97;85.33
71976;BME280;60680;52.182;5.398;2022-12-18T12:21:34;102473.75;;;-1.94;84.28
71976;BME280;60680;52.182;5.398;2022-12-18T12:27:06;102460.31;;;-1.88;84.39
71976;BME280;60680;52.182;5.398;2022-12-18T12:29:42;102463.81;;;-1.85;84.25
71976;BME280;60680;52.182;5.398;2022-12-18T12:32:50;102459.66;;;-1.81;84.88
71976;BME280;60680;52.182;5.398;2022-12-18T12:40:42;102450.44;;;-1.76;83.84
71976;BME280;60680;52.182;5.398;2022-12-18T12:43:34;102446.25;;;-1.74;83.98
71976;BME280;60680;52.182;5.398;2022-12-18T12:46:05;102435.19;;;-1.73;83.50
71976;BME280;60680;52.182;5.398;2022-12-18T12:48:51;102430.19;;;-1.70;83.33
71976;BME280;60680;52.182;5.398;2022-12-18T12:51:28;102430.22;;;-1.68;83.08
71976;BME280;60680;52.182;5.398;2022-12-18T12:53:57;102424.31;;;-1.67;84.13
71976;BME280;60680;52.182;5.398;2022-12-18T12:56:27;102412.41;;;-1.67;83.97
71976;BME280;60680;52.182;5.398;2022-12-18T13:07:17;102421.13;;;-1.58;83.11
71976;BME280;60680;52.182;5.398;2022-12-18T13:13:07;102424.56;;;-1.56;83.35
71976;BME280;60680;52.182;5.398;2022-12-18T13:16:04;102426.28;;;-1.55;83.86
71976;BME280;60680;52.182;5.398;2022-12-18T13:18:32;102415.22;;;-1.56;83.48
71976;BME280;60680;52.182;5.398;2022-12-18T13:23:36;102421.28;;;-1.52;83.23
71976;BME280;60680;52.182;5.398;2022-12-18T13:31:00;102408.56;;;-1.49;83.29
71976;BME280;60680;52.182;5.398;2022-12-18T13:39:15;102406.13;;;-1.46;83.54
71976;BME280;60680;52.182;5.398;2022-12-18T13:44:41;102377.19;;;-1.47;82.83
71976;BME280;60680;52.182;5.398;2022-12-18T13:47:32;102382.34;;;-1.44;83.79
71976;BME280;60680;52.182;5.398;2022-12-18T13:50:01;102369.53;;;-1.45;82.71
71976;BME280;60680;52.182;5.398;2022-12-18T13:52:34;102361.91;;;-1.44;82.96
71976;BME280;60680;52.182;5.398;2022-12-18T13:55:07;102357.66;;;-1.43;83.01
71976;BME280;60680;52.182;5.398;2022-12-18T13:57:41;102357.66;;;-1.43;82.43
71976;BME280;60680;52.182;5.398;2022-12-18T14:00:28;102351.75;;;-1.42;83.37
71976;BME280;60680;52.182;5.398;2022-12-18T14:02:56;102353.41;;;-1.42;83.45
71976;BME280;60680;52.182;5.398;2022-12-18T14:05:24;102344.94;;;-1.41;83.03
71976;BME280;60680;52.182;5.398;2022-12-18T14:07:52;102344.94;;;-1.41;83.65
71976;BME280;60680;52.182;5.398;2022-12-18T14:10:20;102345.00;;;-1.40;82.51
71976;BME280;60680;52.182;5.398;2022-12-18T14:13:09;102340.75;;;-1.39;83.24
71976;BME280;60680;52.182;5.398;2022-12-18T14:15:42;102333.13;;;-1.36;82.44
71976;BME280;60680;52.182;5.398;2022-12-18T14:18:24;102339.13;;;-1.34;83.38
71976;BME280;60680;52.182;5.398;2022-12-18T14:20:54;102330.63;;;-1.35;82.80
71976;BME280;60680;52.182;5.398;2022-12-18T14:25:56;102321.28;;;-1.34;82.54
71976;BME280;60680;52.182;5.398;2022-12-18T14:28:30;102313.66;;;-1.33;82.08
71976;BME280;60680;52.182;5.398;2022-12-18T14:30:57;102313.69;;;-1.31;82.18
71976;BME280;60680;52.182;5.398;2022-12-18T14:33:25;102315.41;;;-1.30;81.51
71976;BME280;60680;52.182;5.398;2022-12-18T14:35:59;102303.50;;;-1.30;81.44
71976;BME280;60680;52.182;5.398;2022-12-18T14:38:33;102295.03;;;-1.29;81.87
71976;BME280;60680;52.182;5.398;2022-12-18T14:41:09;102297.63;;;-1.27;81.00
71976;BME280;60680;52.182;5.398;2022-12-18T14:43:38;102301.03;;;-1.27;81.20
71976;BME280;60680;52.182;5.398;2022-12-18T14:52:38;102291.75;;;-1.23;80.44